sensor_id;sensor_type;location;lat;lon;timestamp;P1;durP1;ratioP1;P2;durP2;ratioP2
15603;SDS011;7902;49.042;9.092;2024-03-29T00:00:52;13.13;;;1.07;;
15603;SDS011;7902;49.042;9.092;2024-03-29T00:03:18;16.53;;;1.40;;
15603;SDS011;7902;49.042;9.092;2024-03-29T00:05:44;14.63;;;1.67;;
15603;SDS011;7902;49.042;9.092;2024-03-29T00:08:10;14.10;;;1.20;;
15603;SDS011;7902;49.042;9.092;2024-03-29T00:10:36;12.60;;;1.00;;
15603;SDS011;7902;49.042;9.092;2024-03-29T00:13:02;12.80;;;1.43;;
15603;SDS011;7902;49.042;9.092;2024-03-29T00:15:28;12.10;;;1.10;;
15603;SDS011;7902;49.042;9.092;2024-03-29T00:17:54;12.87;;;1.20;;
15603;SDS011;7902;49.042;9.092;2024-03-29T00:20:20;16.93;;;1.20;;
15603;SDS011;7902;49.042;9.092;2024-03-29T00:22:47;16.90;;;1.50;;
15603;SDS011;7902;49.042;9.092;2024-03-29T00:25:12;14.20;;;1.30;;
15603;SDS011;7902;49.042;9.092;2024-03-29T00:27:38;12.10;;;1.17;;
15603;SDS011;7902;49.042;9.092;2024-03-29T00:30:04;13.97;;;1.00;;
15603;SDS011;7902;49.042;9.092;2024-03-29T00:32:31;13.20;;;1.30;;
15603;SDS011;7902;49.042;9.092;2024-03-29T00:34:57;19.43;;;1.60;;
15603;SDS011;7902;49.042;9.092;2024-03-29T00:37:23;14.10;;;1.40;;
15603;SDS011;7902;49.042;9.092;2024-03-29T00:39:49;12.97;;;1.13;;
15603;SDS011;7902;49.042;9.092;2024-03-29T00:42:15;27.93;;;1.80;;
15603;SDS011;7902;49.042;9.092;2024-03-29T00:44:42;13.10;;;1.40;;
15603;SDS011;7902;49.042;9.092;2024-03-29T00:47:09;14.43;;;1.33;;
15603;SDS011;7902;49.042;9.092;2024-03-29T00:49:35;14.40;;;1.10;;
15603;SDS011;7902;49.042;9.092;2024-03-29T00:52:02;13.97;;;1.57;;
15603;SDS011;7902;49.042;9.092;2024-03-29T00:54:29;16.83;;;1.60;;
15603;SDS011;7902;49.042;9.092;2024-03-29T00:56:55;14.20;;;1.60;;
15603;SDS011;7902;49.042;9.092;2024-03-29T00:59:21;16.87;;;1.27;;
15603;SDS011;7902;49.042;9.092;2024-03-29T01:01:48;12.80;;;1.10;;
15603;SDS011;7902;49.042;9.092;2024-03-29T01:04:14;12.70;;;1.10;;
15603;SDS011;7902;49.042;9.092;2024-03-29T01:06:40;11.83;;;1.00;;
15603;SDS011;7902;49.042;9.092;2024-03-29T01:09:06;15.67;;;1.40;;
15603;SDS011;7902;49.042;9.092;2024-03-29T01:11:37;13.80;;;1.30;;
15603;SDS011;7902;49.042;9.092;2024-03-29T01:14:03;12.57;;;1.10;;
15603;SDS011;7902;49.042;9.092;2024-03-29T01:16:30;11.80;;;0.97;;
15603;SDS011;7902;49.042;9.092;2024-03-29T01:18:57;12.97;;;1.20;;
15603;SDS011;7902;49.042;9.092;2024-03-29T01:21:23;13.63;;;1.20;;
15603;SDS011;7902;49.042;9.092;2024-03-29T01:23:49;14.40;;;1.40;;
15603;SDS011;7902;49.042;9.092;2024-03-29T01:26:15;12.97;;;1.10;;
15603;SDS011;7902;49.042;9.092;2024-03-29T01:28:45;13.93;;;1.07;;
15603;SDS011;7902;49.042;9.092;2024-03-29T01:31:12;12.57;;;1.03;;
15603;SDS011;7902;49.042;9.092;2024-03-29T01:33:38;12.03;;;1.00;;
15603;SDS011;7902;49.042;9.092;2024-03-29T01:36:09;13.00;;;1.10;;
15603;SDS011;7902;49.042;9.092;2024-03-29T01:38:35;12.93;;;0.93;;
15603;SDS011;7902;49.042;9.092;2024-03-29T01:41:01;12.20;;;1.10;;
15603;SDS011;7902;49.042;9.092;2024-03-29T01:43:28;12.40;;;1.20;;
15603;SDS011;7902;49.042;9.092;2024-03-29T01:45:54;14.63;;;1.30;;
15603;SDS011;7902;49.042;9.092;2024-03-29T01:48:21;11.97;;;1.00;;
15603;SDS011;7902;49.042;9.092;2024-03-29T01:50:49;12.53;;;1.17;;
15603;SDS011;7902;49.042;9.092;2024-03-29T01:53:16;14.60;;;0.87;;
15603;SDS011;7902;49.042;9.092;2024-03-29T01:55:44;12.80;;;1.10;;
15603;SDS011;7902;49.042;9.092;2024-03-29T01:58:11;12.43;;;1.07;;
15603;SDS011;7902;49.042;9.092;2024-03-29T02:00:38;12.73;;;1.07;;
15603;SDS011;7902;49.042;9.092;2024-03-29T02:03:07;14.27;;;1.40;;
15603;SDS011;7902;49.042;9.092;2024-03-29T02:05:42;13.40;;;1.20;;
15603;SDS011;7902;49.042;9.092;2024-03-29T02:08:09;13.57;;;1.20;;
15603;SDS011;7902;49.042;9.092;2024-03-29T02:10:36;14.50;;;1.00;;
15603;SDS011;7902;49.042;9.092;2024-03-29T02:13:03;13.60;;;1.00;;
15603;SDS011;7902;49.042;9.092;2024-03-29T02:15:32;12.93;;;1.03;;
15603;SDS011;7902;49.042;9.092;2024-03-29T02:17:58;12.17;;;1.03;;
15603;SDS011;7902;49.042;9.092;2024-03-29T02:20:24;12.90;;;1.20;;
15603;SDS011;7902;49.042;9.092;2024-03-29T02:22:54;12.70;;;1.00;;
15603;SDS011;7902;49.042;9.092;2024-03-29T02:25:23;14.37;;;1.00;;
15603;SDS011;7902;49.042;9.092;2024-03-29T02:27:50;12.80;;;1.10;;
15603;SDS011;7902;49.042;9.092;2024-03-29T02:30:17;13.03;;;1.30;;
15603;SDS011;7902;49.042;9.092;2024-03-29T02:32:43;13.40;;;1.13;;
15603;SDS011;7902;49.042;9.092;2024-03-29T02:35:09;13.00;;;1.30;;
15603;SDS011;7902;49.042;9.092;2024-03-29T02:37:35;12.80;;;1.00;;
15603;SDS011;7902;49.042;9.092;2024-03-29T02:40:02;12.17;;;1.03;;
15603;SDS011;7902;49.042;9.092;2024-03-29T02:42:29;12.47;;;1.00;;
15603;SDS011;7902;49.042;9.092;2024-03-29T02:44:55;13.77;;;1.10;;
15603;SDS011;7902;49.042;9.092;2024-03-29T02:47:21;12.80;;;1.10;;
15603;SDS011;7902;49.042;9.092;2024-03-29T02:49:48;12.30;;;0.90;;
15603;SDS011;7902;49.042;9.092;2024-03-29T02:52:14;13.27;;;1.10;;
15603;SDS011;7902;49.042;9.092;2024-03-29T02:54:43;14.13;;;1.20;;
15603;SDS011;7902;49.042;9.092;2024-03-29T02:57:08;14.00;;;1.00;;
15603;SDS011;7902;49.042;9.092;2024-03-29T02:59:34;16.13;;;1.10;;
15603;SDS011;7902;49.042;9.092;2024-03-29T03:02:00;11.90;;;0.90;;
15603;SDS011;7902;49.042;9.092;2024-03-29T03:04:26;13.23;;;1.40;;
15603;SDS011;7902;49.042;9.092;2024-03-29T03:06:52;12.00;;;0.80;;
15603;SDS011;7902;49.042;9.092;2024-03-29T03:09:18;12.07;;;0.83;;
15603;SDS011;7902;49.042;9.092;2024-03-29T03:12:02;12.20;;;1.10;;
15603;SDS011;7902;49.042;9.092;2024-03-29T03:14:28;13.97;;;1.00;;
15603;SDS011;7902;49.042;9.092;2024-03-29T03:16:54;11.80;;;0.80;;
15603;SDS011;7902;49.042;9.092;2024-03-29T03:19:20;11.57;;;0.83;;
15603;SDS011;7902;49.042;9.092;2024-03-29T03:21:46;13.03;;;0.90;;
15603;SDS011;7902;49.042;9.092;2024-03-29T03:24:13;13.40;;;1.10;;
15603;SDS011;7902;49.042;9.092;2024-03-29T03:26:39;14.90;;;1.30;;
15603;SDS011;7902;49.042;9.092;2024-03-29T03:29:04;12.77;;;1.00;;
15603;SDS011;7902;49.042;9.092;2024-03-29T03:31:30;11.67;;;0.90;;
15603;SDS011;7902;49.042;9.092;2024-03-29T03:33:56;12.60;;;0.90;;
15603;SDS011;7902;49.042;9.092;2024-03-29T03:36:22;12.30;;;0.90;;
15603;SDS011;7902;49.042;9.092;2024-03-29T03:38:48;13.90;;;1.13;;
15603;SDS011;7902;49.042;9.092;2024-03-29T03:41:14;12.83;;;1.07;;
15603;SDS011;7902;49.042;9.092;2024-03-29T03:43:40;15.17;;;1.40;;
15603;SDS011;7902;49.042;9.092;2024-03-29T03:46:06;15.53;;;1.17;;
15603;SDS011;7902;49.042;9.092;2024-03-29T03:48:32;13.20;;;1.00;;
15603;SDS011;7902;49.042;9.092;2024-03-29T03:50:58;11.80;;;0.80;;
15603;SDS011;7902;49.042;9.092;2024-03-29T03:53:24;12.73;;;1.07;;
15603;SDS011;7902;49.042;9.092;2024-03-29T03:55:49;12.60;;;0.93;;
15603;SDS011;7902;49.042;9.092;2024-03-29T03:58:15;12.60;;;0.87;;
15603;SDS011;7902;49.042;9.092;2024-03-29T04:00:43;13.67;;;0.90;;
15603;SDS011;7902;49.042;9.092;2024-03-29T04:03:08;12.00;;;0.80;;
15603;SDS011;7902;49.042;9.092;2024-03-29T04:05:36;12.67;;;1.00;;
15603;SDS011;7902;49.042;9.092;2024-03-29T04:08:03;12.83;;;0.90;;
15603;SDS011;7902;49.042;9.092;2024-03-29T04:10:30;13.80;;;0.87;;
15603;SDS011;7902;49.042;9.092;2024-03-29T04:12:56;12.60;;;0.90;;
15603;SDS011;7902;49.042;9.092;2024-03-29T04:15:22;12.13;;;0.90;;
15603;SDS011;7902;49.042;9.092;2024-03-29T04:17:47;11.77;;;0.70;;
15603;SDS011;7902;49.042;9.092;2024-03-29T04:20:13;12.40;;;0.90;;
15603;SDS011;7902;49.042;9.092;2024-03-29T04:22:39;12.60;;;0.80;;
15603;SDS011;7902;49.042;9.092;2024-03-29T04:25:05;11.93;;;0.90;;
15603;SDS011;7902;49.042;9.092;2024-03-29T04:27:31;12.60;;;1.10;;
15603;SDS011;7902;49.042;9.092;2024-03-29T04:29:58;11.57;;;0.90;;
15603;SDS011;7902;49.042;9.092;2024-03-29T04:32:24;12.30;;;1.00;;
15603;SDS011;7902;49.042;9.092;2024-03-29T04:34:50;12.60;;;1.10;;
15603;SDS011;7902;49.042;9.092;2024-03-29T04:37:17;14.00;;;1.13;;
15603;SDS011;7902;49.042;9.092;2024-03-29T04:39:43;13.50;;;0.90;;
15603;SDS011;7902;49.042;9.092;2024-03-29T04:42:10;12.30;;;1.10;;
15603;SDS011;7902;49.042;9.092;2024-03-29T04:44:36;14.40;;;1.00;;
15603;SDS011;7902;49.042;9.092;2024-03-29T04:47:03;12.20;;;0.90;;
15603;SDS011;7902;49.042;9.092;2024-03-29T04:49:29;12.23;;;1.00;;
15603;SDS011;7902;49.042;9.092;2024-03-29T04:52:03;12.63;;;0.77;;
15603;SDS011;7902;49.042;9.092;2024-03-29T04:54:32;13.87;;;2.10;;
15603;SDS011;7902;49.042;9.092;2024-03-29T04:56:59;12.30;;;0.90;;
15603;SDS011;7902;49.042;9.092;2024-03-29T04:59:29;12.30;;;0.90;;
15603;SDS011;7902;49.042;9.092;2024-03-29T05:01:55;12.23;;;0.77;;
15603;SDS011;7902;49.042;9.092;2024-03-29T05:04:22;11.50;;;0.83;;
15603;SDS011;7902;49.042;9.092;2024-03-29T05:06:55;13.90;;;1.10;;
15603;SDS011;7902;49.042;9.092;2024-03-29T05:09:23;11.90;;;0.70;;
15603;SDS011;7902;49.042;9.092;2024-03-29T05:11:49;12.20;;;0.90;;
15603;SDS011;7902;49.042;9.092;2024-03-29T05:14:16;13.00;;;0.90;;
15603;SDS011;7902;49.042;9.092;2024-03-29T05:16:44;12.23;;;0.90;;
15603;SDS011;7902;49.042;9.092;2024-03-29T05:19:11;12.20;;;0.83;;
15603;SDS011;7902;49.042;9.092;2024-03-29T05:21:37;13.03;;;0.80;;
15603;SDS011;7902;49.042;9.092;2024-03-29T05:24:03;11.70;;;0.93;;
15603;SDS011;7902;49.042;9.092;2024-03-29T05:26:30;12.77;;;1.17;;
15603;SDS011;7902;49.042;9.092;2024-03-29T05:28:56;12.57;;;0.90;;
15603;SDS011;7902;49.042;9.092;2024-03-29T05:31:25;11.90;;;0.80;;
15603;SDS011;7902;49.042;9.092;2024-03-29T05:33:54;11.90;;;0.83;;
15603;SDS011;7902;49.042;9.092;2024-03-29T05:36:20;12.03;;;0.90;;
15603;SDS011;7902;49.042;9.092;2024-03-29T05:38:46;12.93;;;0.97;;
15603;SDS011;7902;49.042;9.092;2024-03-29T05:41:12;12.67;;;0.90;;
15603;SDS011;7902;49.042;9.092;2024-03-29T05:43:38;12.23;;;0.67;;
15603;SDS011;7902;49.042;9.092;2024-03-29T05:46:05;11.80;;;0.70;;
15603;SDS011;7902;49.042;9.092;2024-03-29T05:48:31;27.03;;;1.17;;
15603;SDS011;7902;49.042;9.092;2024-03-29T05:50:57;13.20;;;1.40;;
15603;SDS011;7902;49.042;9.092;2024-03-29T05:53:23;14.33;;;1.20;;
15603;SDS011;7902;49.042;9.092;2024-03-29T05:55:49;12.47;;;0.97;;
15603;SDS011;7902;49.042;9.092;2024-03-29T05:58:15;12.70;;;1.40;;
15603;SDS011;7902;49.042;9.092;2024-03-29T06:00:46;14.73;;;1.00;;
15603;SDS011;7902;49.042;9.092;2024-03-29T06:03:12;14.00;;;1.13;;
15603;SDS011;7902;49.042;9.092;2024-03-29T06:05:39;13.50;;;0.90;;
15603;SDS011;7902;49.042;9.092;2024-03-29T06:08:06;12.10;;;0.90;;
15603;SDS011;7902;49.042;9.092;2024-03-29T06:10:33;11.40;;;0.80;;
15603;SDS011;7902;49.042;9.092;2024-03-29T06:12:59;12.00;;;0.80;;
15603;SDS011;7902;49.042;9.092;2024-03-29T06:15:33;11.83;;;0.70;;
15603;SDS011;7902;49.042;9.092;2024-03-29T06:18:18;13.47;;;0.90;;
15603;SDS011;7902;49.042;9.092;2024-03-29T06:20:44;12.80;;;0.83;;
15603;SDS011;7902;49.042;9.092;2024-03-29T06:23:11;12.20;;;0.80;;
15603;SDS011;7902;49.042;9.092;2024-03-29T06:25:37;12.50;;;1.00;;
15603;SDS011;7902;49.042;9.092;2024-03-29T06:28:04;11.83;;;0.87;;
15603;SDS011;7902;49.042;9.092;2024-03-29T06:30:30;14.57;;;1.17;;
15603;SDS011;7902;49.042;9.092;2024-03-29T06:32:56;12.27;;;0.80;;
15603;SDS011;7902;49.042;9.092;2024-03-29T06:35:23;13.10;;;0.97;;
15603;SDS011;7902;49.042;9.092;2024-03-29T06:37:49;13.20;;;1.10;;
15603;SDS011;7902;49.042;9.092;2024-03-29T06:40:15;12.33;;;0.93;;
15603;SDS011;7902;49.042;9.092;2024-03-29T06:42:40;12.60;;;0.80;;
15603;SDS011;7902;49.042;9.092;2024-03-29T06:45:06;12.33;;;0.87;;
15603;SDS011;7902;49.042;9.092;2024-03-29T06:47:34;13.03;;;1.00;;
15603;SDS011;7902;49.042;9.092;2024-03-29T06:50:00;12.07;;;0.90;;
15603;SDS011;7902;49.042;9.092;2024-03-29T06:52:26;13.83;;;1.03;;
15603;SDS011;7902;49.042;9.092;2024-03-29T06:54:52;12.63;;;0.97;;
15603;SDS011;7902;49.042;9.092;2024-03-29T06:57:18;12.67;;;1.20;;
15603;SDS011;7902;49.042;9.092;2024-03-29T06:59:48;12.23;;;0.93;;
15603;SDS011;7902;49.042;9.092;2024-03-29T07:02:14;12.40;;;0.83;;
15603;SDS011;7902;49.042;9.092;2024-03-29T07:04:40;13.60;;;1.30;;
15603;SDS011;7902;49.042;9.092;2024-03-29T07:07:06;12.63;;;0.90;;
15603;SDS011;7902;49.042;9.092;2024-03-29T07:09:32;12.70;;;0.83;;
15603;SDS011;7902;49.042;9.092;2024-03-29T07:11:58;13.40;;;1.23;;
15603;SDS011;7902;49.042;9.092;2024-03-29T07:14:24;12.90;;;1.23;;
15603;SDS011;7902;49.042;9.092;2024-03-29T07:16:52;13.83;;;0.77;;
15603;SDS011;7902;49.042;9.092;2024-03-29T07:19:18;12.10;;;0.80;;
15603;SDS011;7902;49.042;9.092;2024-03-29T07:21:47;12.60;;;0.77;;
15603;SDS011;7902;49.042;9.092;2024-03-29T07:24:13;13.23;;;0.80;;
15603;SDS011;7902;49.042;9.092;2024-03-29T07:26:39;13.83;;;0.93;;
15603;SDS011;7902;49.042;9.092;2024-03-29T07:29:06;13.50;;;1.00;;
15603;SDS011;7902;49.042;9.092;2024-03-29T07:31:32;12.70;;;0.87;;
15603;SDS011;7902;49.042;9.092;2024-03-29T07:33:59;13.30;;;0.90;;
15603;SDS011;7902;49.042;9.092;2024-03-29T07:36:25;12.90;;;0.80;;
15603;SDS011;7902;49.042;9.092;2024-03-29T07:38:59;17.47;;;1.10;;
15603;SDS011;7902;49.042;9.092;2024-03-29T07:41:26;15.10;;;1.30;;
15603;SDS011;7902;49.042;9.092;2024-03-29T07:43:55;12.50;;;0.90;;
15603;SDS011;7902;49.042;9.092;2024-03-29T07:46:28;13.90;;;0.97;;
15603;SDS011;7902;49.042;9.092;2024-03-29T07:48:56;12.60;;;0.90;;
15603;SDS011;7902;49.042;9.092;2024-03-29T07:51:22;12.60;;;0.87;;
15603;SDS011;7902;49.042;9.092;2024-03-29T07:53:48;12.30;;;0.80;;
15603;SDS011;7902;49.042;9.092;2024-03-29T07:56:13;14.53;;;1.10;;
15603;SDS011;7902;49.042;9.092;2024-03-29T07:58:39;15.60;;;2.20;;
15603;SDS011;7902;49.042;9.092;2024-03-29T08:01:05;14.27;;;2.07;;
15603;SDS011;7902;49.042;9.092;2024-03-29T08:03:31;13.43;;;1.23;;
15603;SDS011;7902;49.042;9.092;2024-03-29T08:06:01;13.10;;;1.10;;
15603;SDS011;7902;49.042;9.092;2024-03-29T08:08:30;14.30;;;1.27;;
15603;SDS011;7902;49.042;9.092;2024-03-29T08:10:56;12.90;;;1.07;;
15603;SDS011;7902;49.042;9.092;2024-03-29T08:13:23;14.60;;;1.10;;
15603;SDS011;7902;49.042;9.092;2024-03-29T08:15:55;12.63;;;1.23;;
15603;SDS011;7902;49.042;9.092;2024-03-29T08:18:26;13.43;;;1.17;;
15603;SDS011;7902;49.042;9.092;2024-03-29T08:20:52;13.87;;;1.77;;
15603;SDS011;7902;49.042;9.092;2024-03-29T08:23:21;13.73;;;1.20;;
15603;SDS011;7902;49.042;9.092;2024-03-29T08:25:47;12.90;;;1.40;;
15603;SDS011;7902;49.042;9.092;2024-03-29T08:28:14;21.43;;;5.43;;
15603;SDS011;7902;49.042;9.092;2024-03-29T08:30:40;24.37;;;6.60;;
15603;SDS011;7902;49.042;9.092;2024-03-29T08:33:06;19.43;;;4.50;;
15603;SDS011;7902;49.042;9.092;2024-03-29T08:35:32;22.23;;;6.07;;
15603;SDS011;7902;49.042;9.092;2024-03-29T08:37:59;15.07;;;2.20;;
15603;SDS011;7902;49.042;9.092;2024-03-29T08:40:27;16.17;;;1.67;;
15603;SDS011;7902;49.042;9.092;2024-03-29T08:42:55;15.57;;;1.53;;
15603;SDS011;7902;49.042;9.092;2024-03-29T08:45:24;15.13;;;1.37;;
15603;SDS011;7902;49.042;9.092;2024-03-29T08:47:50;28.73;;;1.20;;
15603;SDS011;7902;49.042;9.092;2024-03-29T08:50:15;12.20;;;1.43;;
15603;SDS011;7902;49.042;9.092;2024-03-29T08:52:41;13.60;;;1.50;;
15603;SDS011;7902;49.042;9.092;2024-03-29T08:55:07;15.47;;;1.60;;
15603;SDS011;7902;49.042;9.092;2024-03-29T08:57:34;12.37;;;1.20;;
15603;SDS011;7902;49.042;9.092;2024-03-29T09:00:00;12.60;;;1.20;;
15603;SDS011;7902;49.042;9.092;2024-03-29T09:02:26;11.77;;;1.30;;
15603;SDS011;7902;49.042;9.092;2024-03-29T09:04:52;11.60;;;1.30;;
15603;SDS011;7902;49.042;9.092;2024-03-29T09:07:18;12.40;;;0.97;;
15603;SDS011;7902;49.042;9.092;2024-03-29T09:09:44;11.90;;;1.30;;
15603;SDS011;7902;49.042;9.092;2024-03-29T09:12:10;11.80;;;1.30;;
15603;SDS011;7902;49.042;9.092;2024-03-29T09:14:35;14.73;;;1.30;;
15603;SDS011;7902;49.042;9.092;2024-03-29T09:17:01;13.50;;;1.57;;
15603;SDS011;7902;49.042;9.092;2024-03-29T09:19:28;12.80;;;1.30;;
15603;SDS011;7902;49.042;9.092;2024-03-29T09:21:56;12.87;;;1.30;;
15603;SDS011;7902;49.042;9.092;2024-03-29T09:24:21;12.50;;;1.50;;
15603;SDS011;7902;49.042;9.092;2024-03-29T09:26:51;12.80;;;1.23;;
15603;SDS011;7902;49.042;9.092;2024-03-29T09:29:17;13.47;;;1.63;;
15603;SDS011;7902;49.042;9.092;2024-03-29T09:31:46;15.03;;;1.27;;
15603;SDS011;7902;49.042;9.092;2024-03-29T09:34:12;11.63;;;0.97;;
15603;SDS011;7902;49.042;9.092;2024-03-29T09:36:38;11.60;;;1.07;;
15603;SDS011;7902;49.042;9.092;2024-03-29T09:39:04;13.87;;;1.20;;
15603;SDS011;7902;49.042;9.092;2024-03-29T09:41:30;13.03;;;1.37;;
15603;SDS011;7902;49.042;9.092;2024-03-29T09:43:57;12.13;;;1.13;;
15603;SDS011;7902;49.042;9.092;2024-03-29T09:46:25;11.40;;;1.00;;
15603;SDS011;7902;49.042;9.092;2024-03-29T09:48:52;12.50;;;1.10;;
15603;SDS011;7902;49.042;9.092;2024-03-29T09:51:20;11.37;;;0.93;;
15603;SDS011;7902;49.042;9.092;2024-03-29T09:53:47;13.67;;;1.10;;
15603;SDS011;7902;49.042;9.092;2024-03-29T09:56:14;13.80;;;1.07;;
15603;SDS011;7902;49.042;9.092;2024-03-29T09:58:40;11.80;;;1.03;;
15603;SDS011;7902;49.042;9.092;2024-03-29T10:01:06;14.00;;;1.30;;
15603;SDS011;7902;49.042;9.092;2024-03-29T10:03:57;12.70;;;1.00;;
15603;SDS011;7902;49.042;9.092;2024-03-29T10:06:23;13.57;;;1.30;;
15603;SDS011;7902;49.042;9.092;2024-03-29T10:08:49;13.80;;;1.63;;
15603;SDS011;7902;49.042;9.092;2024-03-29T10:11:16;15.20;;;1.50;;
15603;SDS011;7902;49.042;9.092;2024-03-29T10:13:44;13.93;;;1.20;;
15603;SDS011;7902;49.042;9.092;2024-03-29T10:16:11;14.90;;;1.10;;
15603;SDS011;7902;49.042;9.092;2024-03-29T10:18:38;15.20;;;1.80;;
15603;SDS011;7902;49.042;9.092;2024-03-29T10:21:06;13.60;;;1.10;;
15603;SDS011;7902;49.042;9.092;2024-03-29T10:23:35;12.93;;;1.37;;
15603;SDS011;7902;49.042;9.092;2024-03-29T10:26:01;11.50;;;0.90;;
15603;SDS011;7902;49.042;9.092;2024-03-29T10:28:32;13.20;;;1.40;;
15603;SDS011;7902;49.042;9.092;2024-03-29T10:31:00;15.77;;;2.00;;
15603;SDS011;7902;49.042;9.092;2024-03-29T10:33:30;13.53;;;1.87;;
15603;SDS011;7902;49.042;9.092;2024-03-29T10:35:59;12.93;;;1.70;;
15603;SDS011;7902;49.042;9.092;2024-03-29T10:38:26;13.53;;;1.50;;
15603;SDS011;7902;49.042;9.092;2024-03-29T10:40:53;12.80;;;1.37;;
15603;SDS011;7902;49.042;9.092;2024-03-29T10:43:20;13.80;;;1.67;;
15603;SDS011;7902;49.042;9.092;2024-03-29T10:45:47;13.57;;;1.80;;
15603;SDS011;7902;49.042;9.092;2024-03-29T10:48:14;18.87;;;2.07;;
15603;SDS011;7902;49.042;9.092;2024-03-29T10:50:41;12.70;;;1.50;;
15603;SDS011;7902;49.042;9.092;2024-03-29T10:53:08;13.07;;;1.63;;
15603;SDS011;7902;49.042;9.092;2024-03-29T10:55:37;12.83;;;1.23;;
15603;SDS011;7902;49.042;9.092;2024-03-29T10:58:04;14.63;;;1.47;;
15603;SDS011;7902;49.042;9.092;2024-03-29T11:00:37;12.87;;;1.30;;
15603;SDS011;7902;49.042;9.092;2024-03-29T11:03:12;13.00;;;1.50;;
15603;SDS011;7902;49.042;9.092;2024-03-29T11:06:00;15.30;;;1.80;;
15603;SDS011;7902;49.042;9.092;2024-03-29T11:08:31;13.07;;;1.80;;
15603;SDS011;7902;49.042;9.092;2024-03-29T11:11:00;14.33;;;1.90;;
15603;SDS011;7902;49.042;9.092;2024-03-29T11:13:47;12.90;;;1.40;;
15603;SDS011;7902;49.042;9.092;2024-03-29T11:16:18;14.50;;;1.50;;
15603;SDS011;7902;49.042;9.092;2024-03-29T11:18:46;13.20;;;1.20;;
15603;SDS011;7902;49.042;9.092;2024-03-29T11:21:13;14.00;;;1.20;;
15603;SDS011;7902;49.042;9.092;2024-03-29T11:23:50;19.50;;;2.37;;
15603;SDS011;7902;49.042;9.092;2024-03-29T11:26:18;13.10;;;1.50;;
15603;SDS011;7902;49.042;9.092;2024-03-29T11:28:48;13.00;;;1.23;;
15603;SDS011;7902;49.042;9.092;2024-03-29T11:31:15;15.07;;;1.20;;
15603;SDS011;7902;49.042;9.092;2024-03-29T11:36:10;15.97;;;1.40;;
15603;SDS011;7902;49.042;9.092;2024-03-29T11:38:38;16.03;;;2.00;;
15603;SDS011;7902;49.042;9.092;2024-03-29T11:41:06;13.60;;;1.73;;
15603;SDS011;7902;49.042;9.092;2024-03-29T11:43:35;12.90;;;1.30;;
15603;SDS011;7902;49.042;9.092;2024-03-29T11:46:04;14.50;;;1.70;;
15603;SDS011;7902;49.042;9.092;2024-03-29T11:48:31;12.57;;;1.30;;
15603;SDS011;7902;49.042;9.092;2024-03-29T11:50:58;16.03;;;1.20;;
15603;SDS011;7902;49.042;9.092;2024-03-29T11:53:25;13.60;;;1.20;;
15603;SDS011;7902;49.042;9.092;2024-03-29T11:55:53;13.30;;;1.43;;
15603;SDS011;7902;49.042;9.092;2024-03-29T11:58:20;12.53;;;1.00;;
15603;SDS011;7902;49.042;9.092;2024-03-29T12:00:46;13.83;;;1.30;;
15603;SDS011;7902;49.042;9.092;2024-03-29T12:03:15;12.07;;;0.90;;
15603;SDS011;7902;49.042;9.092;2024-03-29T12:05:42;13.50;;;1.00;;
15603;SDS011;7902;49.042;9.092;2024-03-29T12:08:08;12.50;;;1.00;;
15603;SDS011;7902;49.042;9.092;2024-03-29T12:10:35;12.63;;;1.00;;
15603;SDS011;7902;49.042;9.092;2024-03-29T12:13:02;13.40;;;1.13;;
15603;SDS011;7902;49.042;9.092;2024-03-29T12:15:30;16.50;;;1.40;;
15603;SDS011;7902;49.042;9.092;2024-03-29T12:17:59;15.70;;;1.97;;
15603;SDS011;7902;49.042;9.092;2024-03-29T12:20:28;17.60;;;2.80;;
15603;SDS011;7902;49.042;9.092;2024-03-29T12:22:56;18.90;;;3.60;;
15603;SDS011;7902;49.042;9.092;2024-03-29T12:25:25;14.60;;;2.20;;
15603;SDS011;7902;49.042;9.092;2024-03-29T12:27:52;17.27;;;3.37;;
15603;SDS011;7902;49.042;9.092;2024-03-29T12:30:18;19.40;;;5.07;;
15603;SDS011;7902;49.042;9.092;2024-03-29T12:32:44;19.77;;;4.23;;
15603;SDS011;7902;49.042;9.092;2024-03-29T12:35:10;13.50;;;1.90;;
15603;SDS011;7902;49.042;9.092;2024-03-29T12:37:47;22.30;;;1.60;;
15603;SDS011;7902;49.042;9.092;2024-03-29T12:40:15;15.17;;;2.07;;
15603;SDS011;7902;49.042;9.092;2024-03-29T12:42:44;13.70;;;1.47;;
15603;SDS011;7902;49.042;9.092;2024-03-29T12:45:10;13.60;;;1.30;;
15603;SDS011;7902;49.042;9.092;2024-03-29T12:47:36;15.57;;;1.77;;
15603;SDS011;7902;49.042;9.092;2024-03-29T12:50:02;16.93;;;1.10;;
15603;SDS011;7902;49.042;9.092;2024-03-29T12:52:41;14.80;;;1.97;;
15603;SDS011;7902;49.042;9.092;2024-03-29T12:55:07;13.40;;;1.63;;
15603;SDS011;7902;49.042;9.092;2024-03-29T12:57:34;13.57;;;1.47;;
15603;SDS011;7902;49.042;9.092;2024-03-29T13:00:03;13.80;;;1.57;;
15603;SDS011;7902;49.042;9.092;2024-03-29T13:02:37;13.63;;;1.40;;
15603;SDS011;7902;49.042;9.092;2024-03-29T13:05:04;13.83;;;1.50;;
15603;SDS011;7902;49.042;9.092;2024-03-29T13:07:31;12.60;;;1.17;;
15603;SDS011;7902;49.042;9.092;2024-03-29T13:09:57;16.50;;;1.30;;
15603;SDS011;7902;49.042;9.092;2024-03-29T13:12:29;16.20;;;1.60;;
15603;SDS011;7902;49.042;9.092;2024-03-29T13:14:55;13.80;;;1.50;;
15603;SDS011;7902;49.042;9.092;2024-03-29T13:17:21;13.47;;;1.00;;
15603;SDS011;7902;49.042;9.092;2024-03-29T13:19:47;16.93;;;1.40;;
15603;SDS011;7902;49.042;9.092;2024-03-29T13:22:13;14.13;;;1.30;;
15603;SDS011;7902;49.042;9.092;2024-03-29T13:24:39;15.33;;;1.60;;
15603;SDS011;7902;49.042;9.092;2024-03-29T13:27:05;13.70;;;1.50;;
15603;SDS011;7902;49.042;9.092;2024-03-29T13:29:31;16.07;;;2.10;;
15603;SDS011;7902;49.042;9.092;2024-03-29T13:31:57;17.17;;;2.13;;
15603;SDS011;7902;49.042;9.092;2024-03-29T13:34:23;21.23;;;4.90;;
15603;SDS011;7902;49.042;9.092;2024-03-29T13:36:49;15.10;;;2.20;;
15603;SDS011;7902;49.042;9.092;2024-03-29T13:39:14;15.70;;;2.30;;
15603;SDS011;7902;49.042;9.092;2024-03-29T13:41:41;13.60;;;1.50;;
15603;SDS011;7902;49.042;9.092;2024-03-29T13:44:07;15.10;;;2.33;;
15603;SDS011;7902;49.042;9.092;2024-03-29T13:46:34;16.40;;;2.37;;
15603;SDS011;7902;49.042;9.092;2024-03-29T13:49:01;15.40;;;1.90;;
15603;SDS011;7902;49.042;9.092;2024-03-29T13:51:28;17.17;;;1.90;;
15603;SDS011;7902;49.042;9.092;2024-03-29T13:53:54;13.87;;;1.70;;
15603;SDS011;7902;49.042;9.092;2024-03-29T13:56:20;13.80;;;1.30;;
15603;SDS011;7902;49.042;9.092;2024-03-29T13:58:47;15.20;;;1.60;;
15603;SDS011;7902;49.042;9.092;2024-03-29T14:01:13;17.07;;;1.43;;
15603;SDS011;7902;49.042;9.092;2024-03-29T14:03:39;14.20;;;1.40;;
15603;SDS011;7902;49.042;9.092;2024-03-29T14:06:05;16.40;;;1.40;;
15603;SDS011;7902;49.042;9.092;2024-03-29T14:08:32;15.97;;;1.57;;
15603;SDS011;7902;49.042;9.092;2024-03-29T14:10:58;13.90;;;1.33;;
15603;SDS011;7902;49.042;9.092;2024-03-29T14:13:24;14.03;;;1.40;;
15603;SDS011;7902;49.042;9.092;2024-03-29T14:15:50;14.67;;;1.40;;
15603;SDS011;7902;49.042;9.092;2024-03-29T14:18:16;17.43;;;3.73;;
15603;SDS011;7902;49.042;9.092;2024-03-29T14:20:42;14.77;;;1.70;;
15603;SDS011;7902;49.042;9.092;2024-03-29T14:23:08;14.17;;;1.40;;
15603;SDS011;7902;49.042;9.092;2024-03-29T14:25:37;14.50;;;1.60;;
15603;SDS011;7902;49.042;9.092;2024-03-29T14:28:04;14.70;;;1.60;;
15603;SDS011;7902;49.042;9.092;2024-03-29T14:30:30;15.73;;;2.03;;
15603;SDS011;7902;49.042;9.092;2024-03-29T14:32:56;16.13;;;1.63;;
15603;SDS011;7902;49.042;9.092;2024-03-29T14:35:22;13.67;;;1.30;;
15603;SDS011;7902;49.042;9.092;2024-03-29T14:37:49;14.70;;;1.47;;
15603;SDS011;7902;49.042;9.092;2024-03-29T14:40:15;15.80;;;1.17;;
15603;SDS011;7902;49.042;9.092;2024-03-29T14:42:41;14.73;;;1.20;;
15603;SDS011;7902;49.042;9.092;2024-03-29T14:45:08;14.10;;;1.20;;
15603;SDS011;7902;49.042;9.092;2024-03-29T14:47:37;15.07;;;1.60;;
15603;SDS011;7902;49.042;9.092;2024-03-29T14:50:04;15.30;;;1.60;;